Time;durP1;ratioP1;P1;durP2;ratioP2;P2;SDS_P1;SDS_P2;PMS_P1;PMS_P2;Temp;Humidity;BMP_temperature;BMP_pressure;BME280_temperature;BME280_humidity;BME280_pressure;Samples;Min_cycle;Max_cycle;Signal;HPM_P1;HPM_P2
2021/12/01 00:00:22;;;;;;;0.30;0.30;;;;;;;6.38;100.00;97662.00;4988538;28;20046;-58
2021/12/01 00:02:53;;;;;;;0.30;0.30;;;;;;;6.38;100.00;97678.97;4985956;28;20046;-58
2021/12/01 00:05:21;;;;;;;0.37;0.37;;;;;;;6.27;100.00;97670.69;5020520;28;20064;-58
2021/12/01 00:07:48;;;;;;;0.40;0.40;;;;;;;6.24;100.00;97691.94;5069447;28;20051;-55
2021/12/01 00:10:14;;;;;;;0.30;0.30;;;;;;;6.23;100.00;97709.78;5069913;28;20063;-60
2021/12/01 00:12:40;;;;;;;0.37;0.37;;;;;;;6.23;100.00;97679.25;5067573;28;20044;-57
2021/12/01 00:15:06;;;;;;;0.40;0.40;;;;;;;6.15;100.00;97687.03;5065207;28;20051;-58
2021/12/01 00:17:32;;;;;;;0.33;0.33;;;;;;;6.14;100.00;97710.78;5067470;28;20041;-59
2021/12/01 00:19:59;;;;;;;0.40;0.40;;;;;;;6.18;100.00;97706.47;5067728;28;20421;-58
2021/12/01 00:22:25;;;;;;;0.30;0.30;;;;;;;6.24;100.00;97712.28;5066289;28;20115;-60
2021/12/01 00:24:51;;;;;;;0.30;0.30;;;;;;;6.18;100.00;97717.50;5064420;28;20033;-60
2021/12/01 00:27:16;;;;;;;0.30;0.30;;;;;;;6.07;100.00;97723.63;5070307;28;20094;-59
2021/12/01 00:29:41;;;;;;;0.40;0.40;;;;;;;6.10;100.00;97719.34;5070102;28;20056;-59
2021/12/01 00:32:08;;;;;;;0.37;0.37;;;;;;;6.06;100.00;97710.06;5066751;28;20048;-59
2021/12/01 00:34:34;;;;;;;0.40;0.40;;;;;;;6.13;100.00;97720.97;5066100;28;20620;-57
2021/12/01 00:37:01;;;;;;;0.40;0.40;;;;;;;6.12;100.00;97722.69;5051236;28;20059;-58
2021/12/01 00:39:26;;;;;;;0.33;0.30;;;;;;;6.19;100.00;97698.81;5069089;28;20033;-59
2021/12/01 00:41:52;;;;;;;0.30;0.30;;;;;;;6.24;100.00;97708.91;5065900;28;20044;-57
2021/12/01 00:44:18;;;;;;;0.30;0.30;;;;;;;6.21;100.00;97696.25;5066360;28;20466;-58
2021/12/01 00:47:04;;;;;;;0.50;0.43;;;;;;;6.32;100.00;97725.72;5068088;28;20044;-60
2021/12/01 00:49:31;;;;;;;0.30;0.30;;;;;;;6.45;100.00;97716.16;5068674;28;20477;-58
2021/12/01 00:51:57;;;;;;;0.40;0.40;;;;;;;6.40;100.00;97718.81;5064614;28;20554;-58
2021/12/01 00:54:23;;;;;;;0.50;0.50;;;;;;;6.44;100.00;97722.16;5065639;28;20120;-59
2021/12/01 00:56:51;;;;;;;0.20;0.20;;;;;;;6.47;100.00;97728.88;5069159;28;20037;-58
2021/12/01 00:59:17;;;;;;;0.40;0.40;;;;;;;6.61;100.00;97743.06;5067970;28;20046;-59
2021/12/01 01:01:45;;;;;;;0.47;0.33;;;;;;;6.75;100.00;97717.34;5063298;28;20044;-59
2021/12/01 01:04:11;;;;;;;0.37;0.37;;;;;;;6.60;100.00;97725.25;5045905;28;20331;-59
2021/12/01 01:06:37;;;;;;;0.40;0.40;;;;;;;6.76;100.00;97714.78;5046792;28;20498;-59
2021/12/01 01:09:05;;;;;;;0.30;0.30;;;;;;;6.62;100.00;97716.72;5045581;28;20723;-59
2021/12/01 01:17:07;;;;;;;0.38;0.38;;;;;;;6.60;100.00;97718.47;5046486;28;20052;-58
2021/12/01 01:19:34;;;;;;;0.30;0.30;;;;;;;6.58;100.00;97706.63;5043727;28;20071;-61
2021/12/01 01:22:00;;;;;;;0.30;0.30;;;;;;;6.64;100.00;97729.44;5044260;28;20043;-60
2021/12/01 01:24:27;;;;;;;0.43;0.43;;;;;;;6.56;100.00;97719.38;5043786;28;20124;-60
2021/12/01 01:26:53;;;;;;;0.30;0.30;;;;;;;6.54;100.00;97716.03;5047035;28;20517;-60
2021/12/01 01:29:21;;;;;;;0.30;0.30;;;;;;;6.56;100.00;97705.81;5044382;28;20048;-60
2021/12/01 01:31:50;;;;;;;0.30;0.30;;;;;;;6.67;100.00;97706.44;5045115;28;20094;-60
2021/12/01 01:34:15;;;;;;;0.20;0.20;;;;;;;6.53;100.00;97706.72;5042639;28;20045;-60
2021/12/01 01:36:40;;;;;;;0.30;0.30;;;;;;;6.52;100.00;97716.94;5046321;28;20407;-60
2021/12/01 01:39:06;;;;;;;0.40;0.40;;;;;;;6.40;100.00;97703.56;5043783;28;20033;-59
2021/12/01 01:41:32;;;;;;;0.30;0.30;;;;;;;6.42;100.00;97701.81;5044507;28;20032;-59
2021/12/01 01:43:57;;;;;;;0.33;0.33;;;;;;;6.47;100.00;97704.28;5044307;28;20521;-57
2021/12/01 01:46:23;;;;;;;0.30;0.30;;;;;;;6.47;100.00;97701.72;5045595;28;20534;-59
2021/12/01 01:48:55;;;;;;;0.30;0.30;;;;;;;6.60;100.00;97704.88;5043583;28;20055;-59
2021/12/01 01:51:23;;;;;;;0.30;0.30;;;;;;;6.71;100.00;97695.34;5044957;28;20063;-58
2021/12/01 01:53:53;;;;;;;0.37;0.37;;;;;;;6.72;100.00;97699.56;5043627;28;20078;-58
2021/12/01 01:56:19;;;;;;;0.30;0.30;;;;;;;6.78;100.00;97694.38;5044792;28;20032;-58
2021/12/01 01:58:46;;;;;;;0.30;0.30;;;;;;;6.74;100.00;97691.06;5044840;28;20080;-59
2021/12/01 02:03:58;;;;;;;0.20;0.20;;;;;;;6.84;100.00;97694.25;5061711;28;20095;-59
2021/12/01 02:06:25;;;;;;;0.30;0.30;;;;;;;6.92;100.00;97689.03;5063875;28;20509;-57
2021/12/01 02:08:52;;;;;;;0.30;0.30;;;;;;;6.79;100.00;97671.41;5063303;28;20067;-58
2021/12/01 02:11:20;;;;;;;0.40;0.40;;;;;;;6.91;100.00;97695.81;5066592;28;20037;-59
2021/12/01 02:13:47;;;;;;;0.30;0.30;;;;;;;6.82;100.00;97666.25;5066776;28;20750;-60
2021/12/01 02:16:14;;;;;;;0.30;0.30;;;;;;;6.94;100.00;97665.19;5067375;28;20075;-60
2021/12/01 02:18:40;;;;;;;0.40;0.40;;;;;;;6.79;100.00;97663.75;5067844;28;20090;-60
2021/12/01 02:21:17;;;;;;;0.30;0.30;;;;;;;6.80;100.00;97634.88;5070755;28;20036;-60
2021/12/01 02:23:46;;;;;;;0.40;0.40;;;;;;;6.88;100.00;97653.38;5069812;28;20122;-59
2021/12/01 02:26:13;;;;;;;0.30;0.30;;;;;;;6.86;100.00;97644.13;5066352;28;20040;-60
2021/12/01 02:28:40;;;;;;;0.40;0.40;;;;;;;6.81;100.00;97644.19;5068675;28;20048;-60
2021/12/01 02:31:05;;;;;;;0.30;0.30;;;;;;;6.77;100.00;97621.38;5072463;28;20486;-60
2021/12/01 02:33:31;;;;;;;0.30;0.30;;;;;;;6.84;100.00;97622.91;5070762;28;20063;-59
2021/12/01 02:35:57;;;;;;;0.30;0.30;;;;;;;6.91;100.00;97642.31;5068331;28;20221;-60
2021/12/01 02:38:23;;;;;;;0.20;0.20;;;;;;;6.98;100.00;97640.47;5069767;28;20025;-60
2021/12/01 02:40:48;;;;;;;0.40;0.40;;;;;;;6.97;100.00;97643.88;5071589;28;20342;-60
2021/12/01 02:43:15;;;;;;;0.47;0.47;;;;;;;6.95;100.00;97643.09;5069597;28;20040;-60
2021/12/01 02:45:41;;;;;;;0.30;0.30;;;;;;;7.01;100.00;97663.31;5067249;28;20402;-59
2021/12/01 02:48:13;;;;;;;0.37;0.37;;;;;;;7.16;100.00;97660.47;5066687;28;20097;-57
2021/12/01 02:50:42;;;;;;;0.30;0.30;;;;;;;7.21;100.00;97659.50;5069553;28;20546;-61
2021/12/01 02:53:07;;;;;;;0.33;0.33;;;;;;;7.11;100.00;97683.50;5042858;28;20140;-60
2021/12/01 02:55:39;;;;;;;0.30;0.30;;;;;;;7.17;100.00;97657.06;5065586;28;20036;-59
2021/12/01 02:58:05;;;;;;;0.30;0.30;;;;;;;7.14;100.00;97678.34;5068873;28;20473;-59
2021/12/01 03:00:30;;;;;;;0.30;0.30;;;;;;;7.09;100.00;97699.69;5069768;28;20059;-59
2021/12/01 03:02:56;;;;;;;0.40;0.40;;;;;;;7.14;100.00;97695.34;5061919;28;20124;-59
2021/12/01 03:05:23;;;;;;;0.30;0.30;;;;;;;7.26;100.00;97703.56;5047990;28;20120;-58
2021/12/01 03:07:49;;;;;;;0.30;0.30;;;;;;;7.32;100.00;97703.47;5050920;28;20041;-59
2021/12/01 03:10:14;;;;;;;0.30;0.30;;;;;;;7.34;100.00;97706.00;5051537;28;20386;-59
2021/12/01 03:12:41;;;;;;;0.20;0.20;;;;;;;7.37;100.00;97705.06;5048348;28;20088;-60
2021/12/01 03:15:09;;;;;;;0.20;0.20;;;;;;;7.30;100.00;97681.41;5046534;28;20072;-57
2021/12/01 03:17:35;;;;;;;0.40;0.40;;;;;;;7.33;100.00;97692.41;5050105;28;20076;-52
2021/12/01 03:20:00;;;;;;;0.30;0.30;;;;;;;7.30;100.00;97691.59;5051975;28;20104;-54
2021/12/01 03:22:26;;;;;;;0.20;0.20;;;;;;;7.30;100.00;97699.25;5046026;28;20039;-54
2021/12/01 03:24:52;;;;;;;0.30;0.30;;;;;;;7.25;100.00;97698.53;5043686;28;20041;-57
2021/12/01 03:27:19;;;;;;;0.30;0.30;;;;;;;7.24;100.00;97702.78;5047013;28;20040;-57
2021/12/01 03:29:48;;;;;;;0.30;0.30;;;;;;;7.49;100.00;97709.91;5048004;28;20429;-58
2021/12/01 03:32:15;;;;;;;0.40;0.40;;;;;;;7.48;100.00;97714.16;5044431;28;20107;-56
2021/12/01 03:34:43;;;;;;;0.33;0.33;;;;;;;7.52;100.00;97707.28;5044322;28;20053;-54
2021/12/01 03:37:09;;;;;;;0.60;0.30;;;;;;;7.46;100.00;97709.97;5048296;28;20044;-52
2021/12/01 03:39:35;;;;;;;0.50;0.50;;;;;;;7.53;100.00;97711.50;5044932;28;20052;-56
2021/12/01 03:42:01;;;;;;;0.30;0.30;;;;;;;7.49;100.00;97715.00;5043259;28;20552;-57
2021/12/01 03:44:27;;;;;;;0.40;0.40;;;;;;;7.48;100.00;97721.81;5046545;28;20072;-56
2021/12/01 03:46:52;;;;;;;1.10;0.40;;;;;;;7.53;100.00;97722.56;5048040;28;20048;-57
2021/12/01 03:49:19;;;;;;;0.40;0.40;;;;;;;7.55;100.00;97718.28;5045935;28;20090;-56
2021/12/01 03:51:44;;;;;;;0.30;0.30;;;;;;;7.58;100.00;97728.41;5043480;28;20045;-55
2021/12/01 03:54:09;;;;;;;0.40;0.40;;;;;;;7.60;100.00;97726.66;5045713;28;20044;-56
2021/12/01 03:56:35;;;;;;;0.30;0.30;;;;;;;7.73;100.00;97739.97;5047364;28;20040;-55
2021/12/01 03:59:02;;;;;;;0.30;0.30;;;;;;;7.78;100.00;97730.50;5045664;28;20065;-56
2021/12/01 04:01:28;;;;;;;0.40;0.40;;;;;;;7.77;100.00;97737.31;5044168;28;20045;-56
2021/12/01 04:03:53;;;;;;;0.37;0.37;;;;;;;7.76;100.00;97739.94;5045998;28;20466;-58
2021/12/01 04:06:19;;;;;;;0.30;0.30;;;;;;;7.61;100.00;97751.28;5050870;28;20482;-55
2021/12/01 04:08:44;;;;;;;0.40;0.40;;;;;;;7.51;100.00;97748.97;5046601;28;20487;-57
2021/12/01 04:11:10;;;;;;;0.50;0.50;;;;;;;7.50;100.00;97758.34;5044289;28;20375;-59
2021/12/01 04:13:35;;;;;;;0.30;0.30;;;;;;;7.56;100.00;97745.44;5047725;28;20083;-58
2021/12/01 04:16:01;;;;;;;0.27;0.27;;;;;;;7.65;100.00;97750.34;5048362;28;20509;-56
2021/12/01 04:18:26;;;;;;;0.33;0.33;;;;;;;7.63;100.00;97751.25;5044401;28;20545;-59
2021/12/01 04:20:51;;;;;;;0.40;0.40;;;;;;;7.59;100.00;97753.03;5043323;28;20041;-59
2021/12/01 04:23:17;;;;;;;0.30;0.30;;;;;;;7.61;100.00;97755.53;5047539;28;20151;-58
2021/12/01 04:25:42;;;;;;;0.30;0.30;;;;;;;7.46;100.00;97750.78;5047843;28;20067;-60
2021/12/01 04:28:08;;;;;;;0.40;0.40;;;;;;;7.45;100.00;97760.13;5044646;28;20041;-59
2021/12/01 04:30:33;;;;;;;0.27;0.27;;;;;;;7.51;100.00;97756.63;5044018;28;20375;-58
2021/12/01 04:33:00;;;;;;;0.27;0.27;;;;;;;7.58;100.00;97755.63;5047790;28;20044;-60
2021/12/01 04:35:27;;;;;;;0.30;0.30;;;;;;;7.66;100.00;97752.03;5046968;28;20495;-58
2021/12/01 04:37:53;;;;;;;0.40;0.40;;;;;;;7.66;100.00;97753.75;5042249;28;20505;-60
2021/12/01 04:40:19;;;;;;;0.30;0.30;;;;;;;7.53;100.00;97762.53;5042865;28;20036;-59
2021/12/01 04:42:45;;;;;;;0.30;0.30;;;;;;;7.48;100.00;97762.63;5049349;28;20059;-58
2021/12/01 04:45:15;;;;;;;0.40;0.40;;;;;;;7.42;100.00;97759.38;5045469;28;20041;-58
2021/12/01 04:47:43;;;;;;;0.40;0.40;;;;;;;7.34;100.00;97759.53;5043888;28;20037;-59
2021/12/01 04:50:09;;;;;;;0.30;0.30;;;;;;;7.25;100.00;97765.66;5044489;28;20096;-60
2021/12/01 04:52:35;;;;;;;0.37;0.30;;;;;;;7.09;100.00;97751.50;5047601;28;20029;-60
2021/12/01 04:55:00;;;;;;;0.60;0.60;;;;;;;7.16;100.00;97760.72;5047731;28;20526;-59
2021/12/01 04:57:26;;;;;;;0.60;0.60;;;;;;;7.12;100.00;97755.72;5044818;28;20434;-60
2021/12/01 04:59:51;;;;;;;0.40;0.40;;;;;;;7.03;100.00;97763.53;5044025;28;20040;-60
2021/12/01 05:02:17;;;;;;;1.17;0.50;;;;;;;7.00;100.00;97756.75;5046994;28;20055;-60
2021/12/01 05:04:42;;;;;;;0.50;0.50;;;;;;;6.93;100.00;97764.56;5045923;28;20538;-59
2021/12/01 05:07:13;;;;;;;0.50;0.50;;;;;;;6.91;100.00;97758.66;5043475;28;20063;-60
2021/12/01 05:09:38;;;;;;;0.67;0.67;;;;;;;6.89;100.00;97758.69;5044815;28;20494;-60
2021/12/01 05:12:06;;;;;;;0.93;0.80;;;;;;;6.79;100.00;97764.81;5047450;28;20076;-58
2021/12/01 05:14:35;;;;;;;0.83;0.80;;;;;;;6.83;100.00;97766.47;5046428;28;20028;-59
2021/12/01 05:17:01;;;;;;;0.80;0.80;;;;;;;6.83;100.00;97772.38;5044083;28;20135;-60
2021/12/01 05:19:26;;;;;;;0.67;0.67;;;;;;;6.81;100.00;97776.66;5048445;28;20436;-60
2021/12/01 05:21:52;;;;;;;0.97;0.87;;;;;;;6.74;100.00;97784.44;5049845;28;20044;-60
2021/12/01 05:24:17;;;;;;;0.30;0.30;;;;;;;6.91;100.00;97786.69;5046823;28;20029;-59
2021/12/01 05:26:43;;;;;;;0.40;0.40;;;;;;;7.35;100.00;97786.69;5044441;28;20044;-59
2021/12/01 05:29:08;;;;;;;0.43;0.33;;;;;;;7.44;100.00;97789.06;5045757;28;20033;-59
2021/12/01 05:31:34;;;;;;;0.50;0.50;;;;;;;7.46;100.00;97781.38;5044504;28;20075;-60
2021/12/01 05:34:00;;;;;;;2.17;1.40;;;;;;;7.39;100.00;97779.81;5042712;28;20082;-58
2021/12/01 05:36:25;;;;;;;0.83;0.63;;;;;;;7.34;100.00;97775.63;5021532;28;20041;-61
2021/12/01 05:38:51;;;;;;;1.70;0.40;;;;;;;7.42;100.00;97783.16;5043891;28;20048;-60
2021/12/01 05:41:16;;;;;;;0.47;0.43;;;;;;;7.47;100.00;97785.63;5044196;28;20041;-62
2021/12/01 05:43:42;;;;;;;0.60;0.60;;;;;;;7.51;100.00;97794.88;5042068;28;20048;-61
2021/12/01 05:46:08;;;;;;;0.50;0.50;;;;;;;7.45;100.00;97789.91;5042995;28;20718;-59
2021/12/01 05:48:33;;;;;;;1.50;0.50;;;;;;;7.33;100.00;97791.81;5046414;28;20053;-61
2021/12/01 05:50:59;;;;;;;0.40;0.40;;;;;;;7.25;100.00;97780.09;5050749;28;20045;-60
2021/12/01 05:53:24;;;;;;;0.90;0.67;;;;;;;7.05;100.00;97798.28;5050369;28;20041;-61
2021/12/01 05:55:51;;;;;;;0.50;0.47;;;;;;;6.96;100.00;97795.09;5050040;28;20033;-61
2021/12/01 05:58:16;;;;;;;1.10;0.70;;;;;;;6.91;100.00;97797.72;5048829;28;20037;-62
2021/12/01 06:00:42;;;;;;;1.33;1.00;;;;;;;7.09;100.00;97792.28;5048697;28;20040;-60
2021/12/01 06:03:08;;;;;;;1.30;1.00;;;;;;;6.99;100.00;97785.69;5046266;28;20049;-60
2021/12/01 06:05:34;;;;;;;1.07;0.70;;;;;;;6.99;100.00;97795.03;5047247;28;20404;-61
2021/12/01 06:07:59;;;;;;;1.10;0.80;;;;;;;6.95;100.00;97795.97;5050497;28;20155;-61
2021/12/01 06:10:24;;;;;;;1.43;1.07;;;;;;;6.94;100.00;97800.22;5050795;28;20114;-57
2021/12/01 06:12:52;;;;;;;0.60;0.60;;;;;;;6.93;100.00;97797.69;5047030;28;20037;-58
2021/12/01 06:15:17;;;;;;;0.60;0.60;;;;;;;7.10;100.00;97808.41;5047546;28;20536;-60
2021/12/01 06:17:44;;;;;;;0.40;0.40;;;;;;;7.09;100.00;97805.00;5050797;28;20084;-60
2021/12/01 06:20:12;;;;;;;0.60;0.60;;;;;;;7.10;100.00;97801.59;5050855;28;20033;-57
2021/12/01 06:22:39;;;;;;;0.60;0.57;;;;;;;7.10;100.00;97805.84;5048234;28;20056;-60
2021/12/01 06:25:05;;;;;;;0.40;0.40;;;;;;;7.02;100.00;97798.38;5049172;28;20064;-61
2021/12/01 06:27:30;;;;;;;1.60;0.80;;;;;;;7.00;100.00;97791.63;5052313;28;20451;-60
2021/12/01 06:29:56;;;;;;;1.57;1.10;;;;;;;6.95;100.00;97795.97;5050900;28;20044;-59
2021/12/01 06:32:22;;;;;;;1.10;0.93;;;;;;;6.94;100.00;97792.56;5046261;28;20060;-58
2021/12/01 06:34:47;;;;;;;1.57;0.70;;;;;;;6.97;100.00;97795.06;5047861;28;20037;-58
2021/12/01 06:37:15;;;;;;;0.93;0.80;;;;;;;6.89;100.00;97799.44;5050275;28;20178;-59
2021/12/01 06:39:40;;;;;;;0.73;0.70;;;;;;;6.89;100.00;97807.09;5048526;28;20040;-59
2021/12/01 06:42:06;;;;;;;0.63;0.60;;;;;;;6.93;100.00;97805.31;5045948;28;20354;-58
2021/12/01 06:44:33;;;;;;;0.70;0.70;;;;;;;6.94;100.00;97802.75;5050981;28;20589;-58
2021/12/01 06:46:59;;;;;;;1.33;0.90;;;;;;;6.84;100.00;97791.88;5052173;28;20040;-60
2021/12/01 06:49:25;;;;;;;0.77;0.77;;;;;;;6.75;100.00;97788.66;5047405;28;20547;-58
2021/12/01 06:51:50;;;;;;;0.77;0.77;;;;;;;6.72;100.00;97791.25;5022564;28;20049;-58
2021/12/01 06:54:16;;;;;;;1.50;0.77;;;;;;;6.63;100.00;97784.63;5048421;28;20033;-62
2021/12/01 06:56:41;;;;;;;1.13;0.63;;;;;;;6.63;100.00;97786.31;5049643;28;20033;-59
2021/12/01 06:59:07;;;;;;;1.27;1.17;;;;;;;6.58;100.00;97786.41;5046762;28;20036;-59
2021/12/01 07:01:32;;;;;;;1.33;0.90;;;;;;;6.55;100.00;97776.28;5044336;28;20104;-58
2021/12/01 07:03:58;;;;;;;2.20;1.07;;;;;;;6.52;100.00;97778.03;5044210;28;20429;-58
2021/12/01 07:06:23;;;;;;;2.10;1.13;;;;;;;6.48;100.00;97797.63;5049082;28;20029;-58
2021/12/01 07:08:49;;;;;;;2.43;0.87;;;;;;;6.56;100.00;97790.69;5046907;28;20063;-60
2021/12/01 07:11:14;;;;;;;1.70;0.90;;;;;;;6.55;100.00;97800.88;5045077;28;20073;-59
2021/12/01 07:13:40;;;;;;;0.87;0.80;;;;;;;6.56;100.00;97794.94;5048010;28;20124;-60
2021/12/01 07:16:05;;;;;;;1.17;0.97;;;;;;;6.51;100.00;97792.47;5045633;28;20542;-59
2021/12/01 07:18:31;;;;;;;1.40;0.70;;;;;;;6.60;100.00;97791.47;5044745;28;20051;-60
2021/12/01 07:20:57;;;;;;;3.10;1.27;;;;;;;6.63;100.00;97781.22;5044663;28;20029;-61
2021/12/01 07:23:23;;;;;;;2.33;1.50;;;;;;;6.56;100.00;97782.22;5048555;28;20037;-59
2021/12/01 07:25:49;;;;;;;2.27;1.80;;;;;;;6.55;100.00;97783.06;5049489;28;20044;-59
2021/12/01 07:28:15;;;;;;;2.57;1.90;;;;;;;6.57;100.00;97786.44;5044563;28;20341;-59
2021/12/01 07:30:40;;;;;;;2.10;1.80;;;;;;;6.60;100.00;97791.47;5045256;28;20071;-59
2021/12/01 07:33:07;;;;;;;1.90;1.53;;;;;;;6.77;100.00;97785.22;5049093;28;20053;-61
2021/12/01 07:35:32;;;;;;;1.57;1.47;;;;;;;6.79;100.00;97780.09;5048573;28;20064;-58
2021/12/01 07:37:58;;;;;;;1.30;1.20;;;;;;;6.80;100.00;97779.22;5045141;28;20530;-59
2021/12/01 07:40:23;;;;;;;4.20;1.80;;;;;;;6.76;100.00;97768.25;5044909;28;20048;-61
2021/12/01 07:42:49;;;;;;;2.73;1.10;;;;;;;6.86;100.00;97764.69;5049902;28;20068;-60
2021/12/01 07:45:15;;;;;;;1.10;1.00;;;;;;;6.93;100.00;97765.41;5050462;28;20063;-60
2021/12/01 07:47:40;;;;;;;2.10;1.20;;;;;;;6.96;100.00;97757.69;5046617;28;20049;-58
2021/12/01 07:50:07;;;;;;;0.93;0.93;;;;;;;7.06;100.00;97754.13;5047894;28;20120;-59
2021/12/01 07:52:32;;;;;;;1.57;1.20;;;;;;;7.07;100.00;97760.91;5049994;28;20115;-60
2021/12/01 07:54:58;;;;;;;1.27;1.03;;;;;;;7.19;100.00;97755.56;5040427;28;20033;-60
2021/12/01 07:57:24;;;;;;;0.80;0.80;;;;;;;7.22;100.00;97749.53;5046648;28;20467;-62
2021/12/01 07:59:49;;;;;;;1.00;0.90;;;;;;;7.25;100.00;97758.00;5045816;28;20087;-62
2021/12/01 08:02:15;;;;;;;1.73;1.07;;;;;;;7.30;100.00;97753.63;5048274;28;20036;-61
2021/12/01 08:04:40;;;;;;;1.77;1.20;;;;;;;7.31;100.00;97750.22;5047256;28;20040;-60
2021/12/01 08:07:06;;;;;;;0.90;0.90;;;;;;;7.42;100.00;97736.41;5044467;28;20407;-60
2021/12/01 08:09:31;;;;;;;0.60;0.60;;;;;;;7.64;100.00;97729.97;5044283;28;20037;-61
2021/12/01 08:11:57;;;;;;;0.77;0.50;;;;;;;7.66;100.00;97723.97;5045555;28;20040;-60
2021/12/01 08:14:23;;;;;;;0.50;0.50;;;;;;;7.77;100.00;97723.72;5047099;28;20043;-59
2021/12/01 08:16:49;;;;;;;0.47;0.40;;;;;;;7.78;100.00;97715.19;5045890;28;20032;-59
2021/12/01 08:19:14;;;;;;;0.70;0.70;;;;;;;7.92;100.00;97720.84;5047421;28;20040;-61
2021/12/01 08:21:40;;;;;;;0.53;0.53;;;;;;;7.87;100.00;97720.09;5048523;28;20033;-57
2021/12/01 08:24:05;;;;;;;0.40;0.40;;;;;;;7.98;100.00;97715.56;5045591;28;20112;-61
2021/12/01 08:26:31;;;;;;;0.53;0.53;;;;;;;7.93;100.00;97717.41;5044164;28;20037;-60
2021/12/01 08:28:57;;;;;;;0.80;0.80;;;;;;;8.02;100.00;97712.06;5044260;28;20040;-59
2021/12/01 08:31:23;;;;;;;0.97;0.97;;;;;;;8.00;100.00;97703.63;5046207;28;20406;-60
2021/12/01 08:33:49;;;;;;;1.80;0.70;;;;;;;8.02;100.00;97704.41;5045393;28;20047;-58
2021/12/01 08:36:15;;;;;;;0.60;0.60;;;;;;;8.04;100.00;97689.06;5044026;28;20045;-61
2021/12/01 08:38:42;;;;;;;0.53;0.53;;;;;;;8.01;100.00;97697.66;5044041;28;20040;-60
2021/12/01 08:41:08;;;;;;;0.33;0.33;;;;;;;8.08;100.00;97688.13;5046814;28;20041;-58
2021/12/01 08:43:34;;;;;;;0.67;0.50;;;;;;;8.09;100.00;97690.66;5044818;28;20033;-59
2021/12/01 08:46:01;;;;;;;0.30;0.30;;;;;;;8.14;100.00;97681.19;5043804;28;20042;-62
2021/12/01 08:48:27;;;;;;;2.97;0.40;;;;;;;8.19;100.00;97681.88;5044964;28;20136;-62
2021/12/01 08:50:52;;;;;;;1.57;0.60;;;;;;;8.15;100.00;97685.38;5046182;28;20649;-58
2021/12/01 08:53:17;;;;;;;0.50;0.50;;;;;;;8.19;100.00;97686.97;5044183;28;20051;-61
2021/12/01 08:55:44;;;;;;;0.53;0.53;;;;;;;8.23;100.00;97680.09;5043648;28;20048;-58
2021/12/01 08:58:11;;;;;;;0.50;0.50;;;;;;;8.23;100.00;97682.66;5046641;28;20033;-59
2021/12/01 09:00:41;;;;;;;0.50;0.50;;;;;;;8.28;100.00;97684.19;5046765;28;20029;-57
2021/12/01 09:03:07;;;;;;;0.50;0.40;;;;;;;8.17;100.00;97688.75;5043360;28;20379;-59
2021/12/01 09:05:33;;;;;;;0.30;0.30;;;;;;;8.22;100.00;97688.63;5043883;28;20098;-59
2021/12/01 09:07:59;;;;;;;0.50;0.50;;;;;;;8.17;100.00;97688.75;5029851;28;20044;-61
2021/12/01 09:10:24;;;;;;;0.50;0.50;;;;;;;8.17;100.00;97688.75;5046626;28;20123;-58
2021/12/01 09:12:49;;;;;;;0.57;0.57;;;;;;;8.08;100.00;97686.41;5043508;28;20095;-60
2021/12/01 09:15:15;;;;;;;1.23;0.40;;;;;;;8.05;100.00;97686.50;5044190;28;20489;-58
2021/12/01 09:17:40;;;;;;;0.50;0.50;;;;;;;8.05;100.00;97678.00;5047917;28;20064;-60
2021/12/01 09:20:07;;;;;;;0.60;0.60;;;;;;;8.15;100.00;97672.63;5046636;28;20040;-58
2021/12/01 09:22:32;;;;;;;0.60;0.60;;;;;;;8.26;100.00;97670.66;5042876;28;20093;-61
2021/12/01 09:24:57;;;;;;;0.60;0.60;;;;;;;8.11;100.00;97660.81;5044266;28;20025;-60
2021/12/01 09:27:23;;;;;;;0.80;0.80;;;;;;;8.14;100.00;97660.75;5047286;28;20478;-61
2021/12/01 09:29:49;;;;;;;3.80;2.10;;;;;;;8.07;100.00;97660.91;5045350;28;20125;-60
2021/12/01 09:32:14;;;;;;;4.23;2.20;;;;;;;8.07;100.00;97649.00;5042985;28;20049;-61
2021/12/01 09:34:41;;;;;;;0.80;0.80;;;;;;;8.08;100.00;97637.91;5045272;28;20076;-61
2021/12/01 09:37:07;;;;;;;1.10;0.97;;;;;;;8.08;100.00;97639.63;5045841;28;20515;-61
2021/12/01 09:39:33;;;;;;;0.80;0.80;;;;;;;8.03;100.00;97629.53;5042614;28;20037;-62
2021/12/01 09:42:00;;;;;;;1.00;1.00;;;;;;;8.15;100.00;97623.28;5042886;28;20041;-58
2021/12/01 09:44:25;;;;;;;0.83;0.83;;;;;;;8.11;100.00;97619.97;5045595;28;20029;-57
2021/12/01 09:46:51;;;;;;;0.80;0.80;;;;;;;8.06;100.00;97621.78;5045413;28;20090;-60
2021/12/01 09:49:18;;;;;;;1.00;1.00;;;;;;;8.11;100.00;97619.97;5046491;28;20081;-58
2021/12/01 09:51:44;;;;;;;1.00;1.00;;;;;;;8.12;100.00;97619.09;5044438;28;20044;-59
2021/12/01 09:54:09;;;;;;;2.17;1.70;;;;;;;8.14;100.00;97624.16;5046741;28;20467;-58
2021/12/01 09:56:35;;;;;;;1.43;1.33;;;;;;;8.14;100.00;97614.81;5047965;28;20047;-60
2021/12/01 09:59:01;;;;;;;3.13;2.07;;;;;;;8.12;100.00;97606.31;5046580;28;20037;-59
2021/12/01 10:01:27;;;;;;;2.27;1.37;;;;;;;8.17;100.00;97606.22;5042600;28;20041;-59
2021/12/01 10:03:54;;;;;;;1.87;1.60;;;;;;;8.19;100.00;97597.63;5045616;28;20057;-58
2021/12/01 10:06:21;;;;;;;2.47;2.13;;;;;;;8.26;100.00;97599.16;5045126;28;20037;-60
2021/12/01 10:09:03;;;;;;;5.73;2.90;;;;;;;8.32;100.00;97589.69;5042450;28;20049;-60
2021/12/01 10:11:31;;;;;;;2.80;2.10;;;;;;;8.32;100.00;97582.84;5044920;28;20427;-59
2021/12/01 10:14:20;;;;;;;2.30;2.10;;;;;;;8.41;100.00;97587.72;5048501;28;20037;-60
2021/12/01 10:16:52;;;;;;;4.13;1.73;;;;;;;8.55;100.00;97584.78;5035705;28;20164;-60
2021/12/01 10:19:17;;;;;;;4.13;1.63;;;;;;;8.59;100.00;97596.59;5043192;28;20049;-59
2021/12/01 10:21:51;;;;;;;2.00;1.77;;;;;;;8.67;100.00;97587.84;5044398;28;20041;-60
2021/12/01 10:24:23;;;;;;;1.60;1.50;;;;;;;8.74;100.00;97580.84;5046683;28;20533;-60
2021/12/01 10:26:55;;;;;;;2.57;1.30;;;;;;;8.69;100.00;97560.53;5047864;28;20055;-56
2021/12/01 10:29:30;;;;;;;1.33;1.23;;;;;;;8.81;100.00;97561.91;5044714;28;20122;-59
2021/12/01 10:32:07;;;;;;;1.80;1.70;;;;;;;8.86;100.00;97557.50;5045182;28;20037;-58
2021/12/01 10:34:36;;;;;;;1.70;1.60;;;;;;;8.90;100.00;97553.13;5048005;28;20060;-59
2021/12/01 10:37:11;;;;;;;4.03;2.63;;;;;;;8.93;100.00;97550.47;5048799;28;20063;-58
2021/12/01 10:39:42;;;;;;;1.63;1.52;;;;;;;8.98;100.00;97540.94;5045367;28;20064;-56
2021/12/01 10:42:11;;;;;;;2.70;1.80;;;;;;;8.90;100.00;97546.28;5049175;28;20041;-57
2021/12/01 10:44:37;;;;;;;1.50;1.40;;;;;;;8.91;100.00;97542.84;5031760;28;20920;-59
2021/12/01 10:47:09;;;;;;;4.05;1.60;;;;;;;8.97;100.00;97534.16;5046732;28;20048;-58
2021/12/01 10:49:46;;;;;;;1.80;1.70;;;;;;;8.92;100.00;97526.63;5046442;28;20395;-56
2021/12/01 10:52:33;;;;;;;2.70;2.10;;;;;;;8.87;100.00;97517.44;5049092;28;20032;-59
2021/12/01 10:55:11;;;;;;;1.90;1.80;;;;;;;8.83;100.00;97514.13;5034544;28;20072;-60
2021/12/01 10:57:40;;;;;;;4.27;2.90;;;;;;;8.82;100.00;97506.50;5046842;28;20127;-59
2021/12/01 11:00:18;;;;;;;3.43;3.13;;;;;;;8.74;100.00;97493.13;5048338;28;20406;-58
2021/12/01 11:02:44;;;;;;;2.55;2.33;;;;;;;8.70;100.00;97487.25;5052414;28;20069;-60
2021/12/01 11:05:09;;;;;;;2.53;2.33;;;;;;;8.59;100.00;97499.50;5050107;28;20597;-60
2021/12/01 11:07:35;;;;;;;5.60;2.73;;;;;;;8.59;100.00;97489.31;5045114;28;20044;-60
2021/12/01 11:10:18;;;;;;;3.90;2.43;;;;;;;8.51;100.00;97488.69;5048591;28;20142;-60
2021/12/01 11:13:04;;;;;;;4.63;2.80;;;;;;;8.42;100.00;97468.53;5049088;28;20063;-60
2021/12/01 11:15:38;;;;;;;2.70;2.47;;;;;;;8.61;100.00;97465.38;5044994;28;20116;-60
2021/12/01 11:18:07;;;;;;;3.50;1.80;;;;;;;8.65;100.00;97461.88;5044825;28;20053;-59
2021/12/01 11:20:36;;;;;;;3.67;2.40;;;;;;;8.55;100.00;97454.50;5048556;28;20065;-59
2021/12/01 11:23:10;;;;;;;3.17;2.07;;;;;;;8.71;100.00;97461.66;5048518;28;20383;-59
2021/12/01 11:25:36;;;;;;;2.63;2.20;;;;;;;8.40;100.00;97448.13;5044463;28;20092;-59
2021/12/01 11:28:04;;;;;;;3.83;2.50;;;;;;;8.35;100.00;97452.56;5045769;28;20033;-59
2021/12/01 11:30:30;;;;;;;6.43;2.37;;;;;;;8.47;100.00;97433.47;5048536;28;20041;-59
2021/12/01 11:32:56;;;;;;;2.43;2.03;;;;;;;8.54;100.00;97420.47;5050012;28;20493;-59
2021/12/01 11:35:21;;;;;;;4.10;2.77;;;;;;;8.32;100.00;97447.50;5046903;28;20048;-57
2021/12/01 11:37:55;;;;;;;6.03;2.93;;;;;;;8.41;100.00;97441.31;5046328;28;20033;-59
2021/12/01 11:40:22;;;;;;;3.70;2.97;;;;;;;8.30;100.00;97435.69;5047268;28;20041;-59